sensor_id;sensor_type;location;lat;lon;timestamp;P1;durP1;ratioP1;P2;durP2;ratioP2
69714;SDS011;56981;53.532;49.398;2022-09-30T00:01:48;9.60;;;4.18;;
69714;SDS011;56981;53.532;49.398;2022-09-30T00:04:18;12.05;;;4.70;;
69714;SDS011;56981;53.532;49.398;2022-09-30T00:06:49;10.85;;;4.30;;
69714;SDS011;56981;53.532;49.398;2022-09-30T00:09:17;11.07;;;4.30;;
69714;SDS011;56981;53.532;49.398;2022-09-30T00:11:43;12.20;;;5.38;;
69714;SDS011;56981;53.532;49.398;2022-09-30T00:14:15;7.80;;;3.97;;
69714;SDS011;56981;53.532;49.398;2022-09-30T00:16:43;10.20;;;4.75;;
69714;SDS011;56981;53.532;49.398;2022-09-30T00:19:09;12.27;;;5.05;;
69714;SDS011;56981;53.532;49.398;2022-09-30T00:21:36;9.07;;;4.70;;
69714;SDS011;56981;53.532;49.398;2022-09-30T00:24:02;9.35;;;5.10;;
69714;SDS011;56981;53.532;49.398;2022-09-30T00:26:30;8.65;;;4.82;;
69714;SDS011;56981;53.532;49.398;2022-09-30T00:28:57;8.43;;;4.90;;
69714;SDS011;56981;53.532;49.398;2022-09-30T00:31:26;11.13;;;4.53;;
69714;SDS011;56981;53.532;49.398;2022-09-30T00:33:54;8.65;;;5.05;;
69714;SDS011;56981;53.532;49.398;2022-09-30T00:36:33;7.63;;;4.40;;
69714;SDS011;56981;53.532;49.398;2022-09-30T00:39:11;10.65;;;4.43;;
69714;SDS011;56981;53.532;49.398;2022-09-30T00:41:39;7.72;;;4.90;;
69714;SDS011;56981;53.532;49.398;2022-09-30T00:49:47;12.52;;;5.00;;
69714;SDS011;56981;53.532;49.398;2022-09-30T00:52:13;12.45;;;5.43;;
69714;SDS011;56981;53.532;49.398;2022-09-30T00:54:39;13.30;;;6.28;;
69714;SDS011;56981;53.532;49.398;2022-09-30T00:57:05;13.93;;;6.60;;
69714;SDS011;56981;53.532;49.398;2022-09-30T00:59:37;17.30;;;6.68;;
69714;SDS011;56981;53.532;49.398;2022-09-30T01:02:09;17.27;;;6.47;;
69714;SDS011;56981;53.532;49.398;2022-09-30T01:04:38;19.65;;;6.90;;
69714;SDS011;56981;53.532;49.398;2022-09-30T01:07:07;19.48;;;6.85;;
69714;SDS011;56981;53.532;49.398;2022-09-30T01:09:34;24.88;;;7.30;;
69714;SDS011;56981;53.532;49.398;2022-09-30T01:12:06;23.90;;;7.07;;
69714;SDS011;56981;53.532;49.398;2022-09-30T01:14:36;19.30;;;7.78;;
69714;SDS011;56981;53.532;49.398;2022-09-30T01:17:04;21.45;;;7.32;;
69714;SDS011;56981;53.532;49.398;2022-09-30T01:47:09;17.15;;;6.38;;
69714;SDS011;56981;53.532;49.398;2022-09-30T01:49:45;13.13;;;5.65;;
69714;SDS011;56981;53.532;49.398;2022-09-30T01:52:22;11.27;;;5.13;;
69714;SDS011;56981;53.532;49.398;2022-09-30T01:57:44;11.05;;;6.13;;
69714;SDS011;56981;53.532;49.398;2022-09-30T02:00:21;10.30;;;5.13;;
69714;SDS011;56981;53.532;49.398;2022-09-30T02:02:52;11.68;;;6.03;;
69714;SDS011;56981;53.532;49.398;2022-09-30T02:05:28;10.40;;;5.20;;
69714;SDS011;56981;53.532;49.398;2022-09-30T02:10:59;10.48;;;4.88;;
69714;SDS011;56981;53.532;49.398;2022-09-30T02:13:42;10.25;;;5.32;;
69714;SDS011;56981;53.532;49.398;2022-09-30T02:16:15;12.48;;;5.53;;
69714;SDS011;56981;53.532;49.398;2022-09-30T02:18:49;9.35;;;4.63;;
69714;SDS011;56981;53.532;49.398;2022-09-30T02:21:25;12.80;;;5.15;;
69714;SDS011;56981;53.532;49.398;2022-09-30T02:23:56;11.50;;;4.93;;
69714;SDS011;56981;53.532;49.398;2022-09-30T02:26:31;9.32;;;4.90;;
69714;SDS011;56981;53.532;49.398;2022-09-30T02:29:06;8.55;;;4.38;;
69714;SDS011;56981;53.532;49.398;2022-09-30T02:31:45;7.38;;;4.57;;
69714;SDS011;56981;53.532;49.398;2022-09-30T02:34:21;10.05;;;4.43;;
69714;SDS011;56981;53.532;49.398;2022-09-30T02:37:04;11.50;;;4.47;;
69714;SDS011;56981;53.532;49.398;2022-09-30T02:39:51;12.73;;;5.05;;
69714;SDS011;56981;53.532;49.398;2022-09-30T02:42:35;10.05;;;5.07;;
69714;SDS011;56981;53.532;49.398;2022-09-30T02:45:13;9.27;;;5.18;;
69714;SDS011;56981;53.532;49.398;2022-09-30T02:58:44;9.02;;;4.30;;
69714;SDS011;56981;53.532;49.398;2022-09-30T03:01:12;7.10;;;4.40;;
69714;SDS011;56981;53.532;49.398;2022-09-30T03:03:41;9.63;;;4.75;;
69714;SDS011;56981;53.532;49.398;2022-09-30T03:06:10;7.20;;;4.70;;
69714;SDS011;56981;53.532;49.398;2022-09-30T03:08:37;7.82;;;4.63;;
69714;SDS011;56981;53.532;49.398;2022-09-30T03:11:04;7.22;;;5.00;;
69714;SDS011;56981;53.532;49.398;2022-09-30T03:16:27;7.57;;;5.03;;
69714;SDS011;56981;53.532;49.398;2022-09-30T03:24:46;8.57;;;4.55;;
69714;SDS011;56981;53.532;49.398;2022-09-30T03:27:20;9.07;;;4.45;;
69714;SDS011;56981;53.532;49.398;2022-09-30T03:30:21;8.48;;;5.03;;
69714;SDS011;56981;53.532;49.398;2022-09-30T03:46:17;10.68;;;5.40;;
69714;SDS011;56981;53.532;49.398;2022-09-30T03:49:00;8.93;;;5.28;;
69714;SDS011;56981;53.532;49.398;2022-09-30T03:51:30;10.50;;;4.97;;
69714;SDS011;56981;53.532;49.398;2022-09-30T03:54:00;8.57;;;4.60;;
69714;SDS011;56981;53.532;49.398;2022-09-30T03:56:27;9.93;;;4.72;;
69714;SDS011;56981;53.532;49.398;2022-09-30T03:58:55;10.05;;;5.35;;
69714;SDS011;56981;53.532;49.398;2022-09-30T04:01:21;9.65;;;5.57;;
69714;SDS011;56981;53.532;49.398;2022-09-30T04:03:48;11.13;;;5.25;;
69714;SDS011;56981;53.532;49.398;2022-09-30T04:06:21;10.90;;;5.00;;
69714;SDS011;56981;53.532;49.398;2022-09-30T04:08:48;8.50;;;4.65;;
69714;SDS011;56981;53.532;49.398;2022-09-30T04:11:15;11.13;;;5.72;;
69714;SDS011;56981;53.532;49.398;2022-09-30T04:13:42;7.93;;;5.15;;
69714;SDS011;56981;53.532;49.398;2022-09-30T04:16:08;8.07;;;4.70;;
69714;SDS011;56981;53.532;49.398;2022-09-30T04:18:35;6.38;;;4.72;;
69714;SDS011;56981;53.532;49.398;2022-09-30T04:21:06;8.10;;;4.75;;
69714;SDS011;56981;53.532;49.398;2022-09-30T04:23:34;7.25;;;4.57;;
69714;SDS011;56981;53.532;49.398;2022-09-30T04:26:01;8.57;;;5.40;;
69714;SDS011;56981;53.532;49.398;2022-09-30T04:28:27;9.57;;;5.78;;
69714;SDS011;56981;53.532;49.398;2022-09-30T04:30:53;7.53;;;5.47;;
69714;SDS011;56981;53.532;49.398;2022-09-30T04:33:19;7.63;;;5.00;;
69714;SDS011;56981;53.532;49.398;2022-09-30T04:35:45;10.63;;;6.03;;
69714;SDS011;56981;53.532;49.398;2022-09-30T04:38:11;10.45;;;5.95;;
69714;SDS011;56981;53.532;49.398;2022-09-30T04:40:37;12.80;;;6.78;;
69714;SDS011;56981;53.532;49.398;2022-09-30T04:43:04;12.50;;;6.28;;
69714;SDS011;56981;53.532;49.398;2022-09-30T04:45:30;15.27;;;6.97;;
69714;SDS011;56981;53.532;49.398;2022-09-30T04:47:56;14.10;;;6.38;;
69714;SDS011;56981;53.532;49.398;2022-09-30T04:50:22;16.67;;;7.00;;
69714;SDS011;56981;53.532;49.398;2022-09-30T04:52:48;19.42;;;7.85;;
69714;SDS011;56981;53.532;49.398;2022-09-30T04:55:14;17.13;;;6.82;;
69714;SDS011;56981;53.532;49.398;2022-09-30T04:57:43;13.27;;;5.97;;
69714;SDS011;56981;53.532;49.398;2022-09-30T05:00:10;12.05;;;6.05;;
69714;SDS011;56981;53.532;49.398;2022-09-30T05:02:41;17.08;;;7.00;;
69714;SDS011;56981;53.532;49.398;2022-09-30T05:05:08;14.70;;;6.47;;
69714;SDS011;56981;53.532;49.398;2022-09-30T05:07:34;11.93;;;6.40;;
69714;SDS011;56981;53.532;49.398;2022-09-30T05:10:00;9.85;;;5.75;;
69714;SDS011;56981;53.532;49.398;2022-09-30T05:12:26;12.30;;;6.38;;
69714;SDS011;56981;53.532;49.398;2022-09-30T05:14:52;9.68;;;6.15;;
69714;SDS011;56981;53.532;49.398;2022-09-30T05:17:18;9.60;;;5.55;;
69714;SDS011;56981;53.532;49.398;2022-09-30T05:19:44;9.35;;;6.18;;
69714;SDS011;56981;53.532;49.398;2022-09-30T05:22:10;9.75;;;5.60;;
69714;SDS011;56981;53.532;49.398;2022-09-30T05:24:38;11.02;;;5.50;;
69714;SDS011;56981;53.532;49.398;2022-09-30T05:27:04;9.85;;;5.05;;
69714;SDS011;56981;53.532;49.398;2022-09-30T05:29:31;8.13;;;5.30;;
69714;SDS011;56981;53.532;49.398;2022-09-30T05:31:57;10.60;;;5.88;;
69714;SDS011;56981;53.532;49.398;2022-09-30T05:34:23;10.25;;;6.35;;
69714;SDS011;56981;53.532;49.398;2022-09-30T05:36:49;10.70;;;5.53;;
69714;SDS011;56981;53.532;49.398;2022-09-30T05:39:15;9.23;;;5.25;;
69714;SDS011;56981;53.532;49.398;2022-09-30T05:41:41;8.68;;;5.43;;
69714;SDS011;56981;53.532;49.398;2022-09-30T05:44:07;9.07;;;5.22;;
69714;SDS011;56981;53.532;49.398;2022-09-30T05:46:34;9.57;;;6.03;;
69714;SDS011;56981;53.532;49.398;2022-09-30T05:49:00;7.95;;;5.60;;
69714;SDS011;56981;53.532;49.398;2022-09-30T05:51:26;12.77;;;5.65;;
69714;SDS011;56981;53.532;49.398;2022-09-30T05:53:52;8.68;;;5.85;;
69714;SDS011;56981;53.532;49.398;2022-09-30T05:56:18;6.95;;;5.30;;
69714;SDS011;56981;53.532;49.398;2022-09-30T05:58:44;8.18;;;4.95;;
69714;SDS011;56981;53.532;49.398;2022-09-30T06:01:12;8.98;;;5.32;;
69714;SDS011;56981;53.532;49.398;2022-09-30T06:03:40;10.55;;;5.10;;
69714;SDS011;56981;53.532;49.398;2022-09-30T06:06:09;9.82;;;5.75;;
69714;SDS011;56981;53.532;49.398;2022-09-30T06:08:47;9.18;;;5.80;;
69714;SDS011;56981;53.532;49.398;2022-09-30T06:11:15;8.50;;;5.70;;
69714;SDS011;56981;53.532;49.398;2022-09-30T06:13:44;7.88;;;5.72;;
69714;SDS011;56981;53.532;49.398;2022-09-30T06:16:15;7.68;;;5.38;;
69714;SDS011;56981;53.532;49.398;2022-09-30T06:18:43;11.48;;;5.65;;
69714;SDS011;56981;53.532;49.398;2022-09-30T06:21:11;7.28;;;5.50;;
69714;SDS011;56981;53.532;49.398;2022-09-30T06:23:40;9.93;;;6.28;;
69714;SDS011;56981;53.532;49.398;2022-09-30T06:26:07;9.15;;;5.95;;
69714;SDS011;56981;53.532;49.398;2022-09-30T06:28:36;9.18;;;5.82;;
69714;SDS011;56981;53.532;49.398;2022-09-30T06:31:03;8.82;;;5.97;;
69714;SDS011;56981;53.532;49.398;2022-09-30T06:33:29;8.35;;;5.57;;
69714;SDS011;56981;53.532;49.398;2022-09-30T06:35:56;11.13;;;5.60;;
69714;SDS011;56981;53.532;49.398;2022-09-30T06:38:22;7.78;;;5.60;;
69714;SDS011;56981;53.532;49.398;2022-09-30T06:40:48;6.78;;;5.75;;
69714;SDS011;56981;53.532;49.398;2022-09-30T06:43:18;13.63;;;5.88;;
69714;SDS011;56981;53.532;49.398;2022-09-30T06:45:46;8.15;;;5.35;;
69714;SDS011;56981;53.532;49.398;2022-09-30T06:48:13;9.57;;;5.55;;
69714;SDS011;56981;53.532;49.398;2022-09-30T06:50:40;9.07;;;5.90;;
69714;SDS011;56981;53.532;49.398;2022-09-30T06:53:07;7.60;;;4.53;;
69714;SDS011;56981;53.532;49.398;2022-09-30T06:55:36;7.40;;;5.63;;
69714;SDS011;56981;53.532;49.398;2022-09-30T06:58:06;7.63;;;5.00;;
69714;SDS011;56981;53.532;49.398;2022-09-30T07:00:37;9.95;;;4.95;;
69714;SDS011;56981;53.532;49.398;2022-09-30T07:03:04;5.78;;;5.13;;
69714;SDS011;56981;53.532;49.398;2022-09-30T07:05:35;6.45;;;4.78;;
69714;SDS011;56981;53.532;49.398;2022-09-30T07:08:01;5.63;;;5.03;;
69714;SDS011;56981;53.532;49.398;2022-09-30T07:10:28;9.18;;;5.70;;
69714;SDS011;56981;53.532;49.398;2022-09-30T07:12:53;6.40;;;5.53;;
69714;SDS011;56981;53.532;49.398;2022-09-30T07:15:20;5.95;;;4.82;;
69714;SDS011;56981;53.532;49.398;2022-09-30T07:17:51;5.13;;;4.13;;
69714;SDS011;56981;53.532;49.398;2022-09-30T07:20:23;10.52;;;5.65;;
69714;SDS011;56981;53.532;49.398;2022-09-30T07:22:49;6.05;;;5.00;;
69714;SDS011;56981;53.532;49.398;2022-09-30T07:25:15;6.75;;;4.95;;
69714;SDS011;56981;53.532;49.398;2022-09-30T07:27:42;8.95;;;4.65;;
69714;SDS011;56981;53.532;49.398;2022-09-30T07:30:09;8.68;;;6.78;;
69714;SDS011;56981;53.532;49.398;2022-09-30T07:32:37;6.95;;;4.97;;
69714;SDS011;56981;53.532;49.398;2022-09-30T07:35:03;6.38;;;4.78;;
69714;SDS011;56981;53.532;49.398;2022-09-30T07:37:30;6.47;;;5.65;;
69714;SDS011;56981;53.532;49.398;2022-09-30T07:40:01;6.00;;;5.20;;
69714;SDS011;56981;53.532;49.398;2022-09-30T07:42:29;9.55;;;6.40;;
69714;SDS011;56981;53.532;49.398;2022-09-30T07:44:55;10.68;;;5.40;;
69714;SDS011;56981;53.532;49.398;2022-09-30T07:47:21;7.00;;;5.20;;
69714;SDS011;56981;53.532;49.398;2022-09-30T07:49:48;6.30;;;5.63;;
69714;SDS011;56981;53.532;49.398;2022-09-30T07:52:14;7.53;;;4.88;;
69714;SDS011;56981;53.532;49.398;2022-09-30T07:54:40;6.50;;;5.25;;
69714;SDS011;56981;53.532;49.398;2022-09-30T07:57:07;5.43;;;4.65;;
69714;SDS011;56981;53.532;49.398;2022-09-30T07:59:34;6.65;;;5.05;;
69714;SDS011;56981;53.532;49.398;2022-09-30T08:02:02;9.52;;;5.65;;
69714;SDS011;56981;53.532;49.398;2022-09-30T08:04:29;9.65;;;5.53;;
69714;SDS011;56981;53.532;49.398;2022-09-30T08:06:57;8.00;;;5.20;;
69714;SDS011;56981;53.532;49.398;2022-09-30T08:09:25;7.15;;;5.45;;
69714;SDS011;56981;53.532;49.398;2022-09-30T08:11:53;7.35;;;5.80;;
69714;SDS011;56981;53.532;49.398;2022-09-30T08:14:21;8.00;;;5.40;;
69714;SDS011;56981;53.532;49.398;2022-09-30T08:16:48;6.35;;;4.90;;
69714;SDS011;56981;53.532;49.398;2022-09-30T08:19:15;9.13;;;5.78;;
69714;SDS011;56981;53.532;49.398;2022-09-30T08:21:43;10.02;;;5.63;;
69714;SDS011;56981;53.532;49.398;2022-09-30T08:24:10;9.05;;;6.32;;
69714;SDS011;56981;53.532;49.398;2022-09-30T08:26:37;10.65;;;7.00;;
69714;SDS011;56981;53.532;49.398;2022-09-30T08:29:03;11.75;;;7.65;;
69714;SDS011;56981;53.532;49.398;2022-09-30T08:31:30;8.32;;;6.22;;
69714;SDS011;56981;53.532;49.398;2022-09-30T08:33:57;8.48;;;6.32;;
69714;SDS011;56981;53.532;49.398;2022-09-30T08:36:24;9.40;;;6.50;;
69714;SDS011;56981;53.532;49.398;2022-09-30T08:38:52;7.95;;;6.45;;
69714;SDS011;56981;53.532;49.398;2022-09-30T08:41:26;8.63;;;6.38;;
69714;SDS011;56981;53.532;49.398;2022-09-30T08:52:23;10.27;;;6.20;;
69714;SDS011;56981;53.532;49.398;2022-09-30T08:54:53;8.82;;;5.45;;
69714;SDS011;56981;53.532;49.398;2022-09-30T08:57:21;7.25;;;5.05;;
69714;SDS011;56981;53.532;49.398;2022-09-30T08:59:54;9.27;;;6.13;;
69714;SDS011;56981;53.532;49.398;2022-09-30T09:04:56;11.27;;;6.72;;
69714;SDS011;56981;53.532;49.398;2022-09-30T09:18:37;9.57;;;6.70;;
69714;SDS011;56981;53.532;49.398;2022-09-30T09:23:56;7.07;;;5.93;;
69714;SDS011;56981;53.532;49.398;2022-09-30T09:26:26;9.50;;;6.07;;
69714;SDS011;56981;53.532;49.398;2022-09-30T09:31:47;8.93;;;5.18;;
69714;SDS011;56981;53.532;49.398;2022-09-30T09:34:13;7.50;;;5.82;;
69714;SDS011;56981;53.532;49.398;2022-09-30T09:36:50;9.40;;;5.32;;
69714;SDS011;56981;53.532;49.398;2022-09-30T09:39:52;9.43;;;6.15;;
69714;SDS011;56981;53.532;49.398;2022-09-30T09:48:39;9.43;;;6.03;;
69714;SDS011;56981;53.532;49.398;2022-09-30T09:51:52;7.78;;;5.60;;
69714;SDS011;56981;53.532;49.398;2022-09-30T09:53:58;11.63;;;6.80;;
69714;SDS011;56981;53.532;49.398;2022-09-30T09:56:27;12.23;;;6.18;;
69714;SDS011;56981;53.532;49.398;2022-09-30T10:01:41;11.73;;;6.03;;
69714;SDS011;56981;53.532;49.398;2022-09-30T10:04:09;8.38;;;5.20;;
69714;SDS011;56981;53.532;49.398;2022-09-30T10:09:27;8.10;;;5.10;;
69714;SDS011;56981;53.532;49.398;2022-09-30T10:14:31;7.50;;;5.05;;
69714;SDS011;56981;53.532;49.398;2022-09-30T10:17:01;9.20;;;5.72;;
69714;SDS011;56981;53.532;49.398;2022-09-30T10:19:30;10.43;;;5.55;;
69714;SDS011;56981;53.532;49.398;2022-09-30T10:24:34;7.35;;;5.90;;
69714;SDS011;56981;53.532;49.398;2022-09-30T10:27:02;7.55;;;5.68;;
69714;SDS011;56981;53.532;49.398;2022-09-30T10:29:32;5.68;;;4.80;;
69714;SDS011;56981;53.532;49.398;2022-09-30T10:32:01;7.00;;;4.32;;
69714;SDS011;56981;53.532;49.398;2022-09-30T10:34:40;6.78;;;5.00;;
69714;SDS011;56981;53.532;49.398;2022-09-30T10:37:18;6.32;;;4.85;;
69714;SDS011;56981;53.532;49.398;2022-09-30T10:39:51;8.80;;;4.40;;
69714;SDS011;56981;53.532;49.398;2022-09-30T10:44:54;8.13;;;4.28;;
69714;SDS011;56981;53.532;49.398;2022-09-30T10:47:23;8.35;;;4.85;;
69714;SDS011;56981;53.532;49.398;2022-09-30T10:49:55;7.22;;;5.03;;
69714;SDS011;56981;53.532;49.398;2022-09-30T10:52:30;9.15;;;4.45;;
69714;SDS011;56981;53.532;49.398;2022-09-30T10:55:04;7.47;;;4.80;;
69714;SDS011;56981;53.532;49.398;2022-09-30T10:57:33;10.13;;;5.30;;
69714;SDS011;56981;53.532;49.398;2022-09-30T11:00:05;7.25;;;4.40;;
69714;SDS011;56981;53.532;49.398;2022-09-30T11:02:47;10.05;;;4.97;;
69714;SDS011;56981;53.532;49.398;2022-09-30T11:05:32;6.15;;;4.28;;
69714;SDS011;56981;53.532;49.398;2022-09-30T11:11:01;6.05;;;3.47;;
69714;SDS011;56981;53.532;49.398;2022-09-30T11:16:08;5.00;;;3.47;;
69714;SDS011;56981;53.532;49.398;2022-09-30T11:18:44;8.20;;;4.78;;
69714;SDS011;56981;53.532;49.398;2022-09-30T11:21:17;6.63;;;3.55;;
69714;SDS011;56981;53.532;49.398;2022-09-30T11:24:06;6.15;;;3.40;;
69714;SDS011;56981;53.532;49.398;2022-09-30T11:37:56;6.93;;;3.28;;
69714;SDS011;56981;53.532;49.398;2022-09-30T11:46:29;6.05;;;4.35;;
69714;SDS011;56981;53.532;49.398;2022-09-30T11:58:05;6.72;;;4.43;;
69714;SDS011;56981;53.532;49.398;2022-09-30T12:00:41;7.47;;;5.50;;
69714;SDS011;56981;53.532;49.398;2022-09-30T12:03:19;9.95;;;5.20;;
69714;SDS011;56981;53.532;49.398;2022-09-30T12:05:56;7.40;;;4.78;;
69714;SDS011;56981;53.532;49.398;2022-09-30T12:08:36;9.65;;;4.05;;
69714;SDS011;56981;53.532;49.398;2022-09-30T12:11:13;8.38;;;5.93;;
69714;SDS011;56981;53.532;49.398;2022-09-30T12:14:19;8.90;;;5.57;;
69714;SDS011;56981;53.532;49.398;2022-09-30T12:16:50;9.45;;;5.65;;
69714;SDS011;56981;53.532;49.398;2022-09-30T12:19:19;7.70;;;4.85;;
69714;SDS011;56981;53.532;49.398;2022-09-30T12:24:36;8.77;;;5.60;;
69714;SDS011;56981;53.532;49.398;2022-09-30T12:27:28;8.07;;;5.18;;
69714;SDS011;56981;53.532;49.398;2022-09-30T12:30:09;7.45;;;5.20;;
69714;SDS011;56981;53.532;49.398;2022-09-30T12:38:28;9.20;;;7.53;;
69714;SDS011;56981;53.532;49.398;2022-09-30T12:49:32;10.43;;;6.70;;
69714;SDS011;56981;53.532;49.398;2022-09-30T12:52:03;11.45;;;6.65;;
69714;SDS011;56981;53.532;49.398;2022-09-30T12:54:33;9.82;;;6.30;;
69714;SDS011;56981;53.532;49.398;2022-09-30T12:57:04;11.05;;;6.90;;
69714;SDS011;56981;53.532;49.398;2022-09-30T12:59:34;9.20;;;5.88;;
69714;SDS011;56981;53.532;49.398;2022-09-30T13:02:03;9.68;;;5.95;;
69714;SDS011;56981;53.532;49.398;2022-09-30T13:04:37;11.95;;;6.60;;
69714;SDS011;56981;53.532;49.398;2022-09-30T13:07:11;12.18;;;7.53;;
69714;SDS011;56981;53.532;49.398;2022-09-30T13:13:07;13.23;;;8.20;;
69714;SDS011;56981;53.532;49.398;2022-09-30T13:15:37;11.13;;;7.05;;
69714;SDS011;56981;53.532;49.398;2022-09-30T13:20:52;10.27;;;6.18;;
69714;SDS011;56981;53.532;49.398;2022-09-30T13:29:37;8.60;;;5.43;;
69714;SDS011;56981;53.532;49.398;2022-09-30T13:34:23;12.77;;;6.55;;
69714;SDS011;56981;53.532;49.398;2022-09-30T13:39:24;15.77;;;6.45;;
69714;SDS011;56981;53.532;49.398;2022-09-30T13:44:38;11.30;;;5.28;;
69714;SDS011;56981;53.532;49.398;2022-09-30T13:47:36;11.40;;;5.05;;
69714;SDS011;56981;53.532;49.398;2022-09-30T13:52:59;9.32;;;5.20;;
69714;SDS011;56981;53.532;49.398;2022-09-30T13:55:32;9.23;;;5.45;;
69714;SDS011;56981;53.532;49.398;2022-09-30T14:07:06;8.55;;;5.05;;
69714;SDS011;56981;53.532;49.398;2022-09-30T14:12:58;10.43;;;5.60;;
69714;SDS011;56981;53.532;49.398;2022-09-30T14:23:42;9.65;;;4.15;;
69714;SDS011;56981;53.532;49.398;2022-09-30T14:31:47;6.80;;;4.00;;
69714;SDS011;56981;53.532;49.398;2022-09-30T14:34:14;6.22;;;4.07;;
69714;SDS011;56981;53.532;49.398;2022-09-30T14:36:42;6.82;;;4.32;;
69714;SDS011;56981;53.532;49.398;2022-09-30T14:39:12;5.82;;;3.85;;
69714;SDS011;56981;53.532;49.398;2022-09-30T14:41:53;6.18;;;4.35;;
69714;SDS011;56981;53.532;49.398;2022-09-30T14:44:23;5.78;;;4.20;;
69714;SDS011;56981;53.532;49.398;2022-09-30T14:46:51;8.10;;;3.85;;
69714;SDS011;56981;53.532;49.398;2022-09-30T14:49:24;7.82;;;3.85;;
69714;SDS011;56981;53.532;49.398;2022-09-30T14:51:57;10.65;;;4.35;;
69714;SDS011;56981;53.532;49.398;2022-09-30T14:54:31;7.53;;;4.72;;
69714;SDS011;56981;53.532;49.398;2022-09-30T14:56:59;9.07;;;4.65;;
69714;SDS011;56981;53.532;49.398;2022-09-30T14:59:30;9.07;;;5.32;;
69714;SDS011;56981;53.532;49.398;2022-09-30T15:02:02;8.57;;;5.65;;
69714;SDS011;56981;53.532;49.398;2022-09-30T15:04:40;9.35;;;5.13;;
69714;SDS011;56981;53.532;49.398;2022-09-30T15:07:14;13.15;;;7.55;;
69714;SDS011;56981;53.532;49.398;2022-09-30T15:09:41;9.95;;;6.78;;
69714;SDS011;56981;53.532;49.398;2022-09-30T15:14:45;14.00;;;7.50;;
69714;SDS011;56981;53.532;49.398;2022-09-30T15:19:45;13.73;;;6.90;;
69714;SDS011;56981;53.532;49.398;2022-09-30T15:22:11;21.65;;;10.73;;
69714;SDS011;56981;53.532;49.398;2022-09-30T15:24:38;29.30;;;15.88;;
69714;SDS011;56981;53.532;49.398;2022-09-30T15:27:19;32.13;;;17.98;;
69714;SDS011;56981;53.532;49.398;2022-09-30T15:32:21;34.75;;;20.30;;
69714;SDS011;56981;53.532;49.398;2022-09-30T15:34:49;38.33;;;22.35;;
69714;SDS011;56981;53.532;49.398;2022-09-30T15:37:20;35.53;;;23.48;;
69714;SDS011;56981;53.532;49.398;2022-09-30T15:39:54;37.20;;;20.80;;
69714;SDS011;56981;53.532;49.398;2022-09-30T15:42:46;40.53;;;23.48;;
69714;SDS011;56981;53.532;49.398;2022-09-30T15:45:37;47.78;;;29.02;;
69714;SDS011;56981;53.532;49.398;2022-09-30T15:50:56;49.10;;;28.73;;
69714;SDS011;56981;53.532;49.398;2022-09-30T15:53:28;56.08;;;29.77;;
69714;SDS011;56981;53.532;49.398;2022-09-30T15:55:56;52.05;;;30.02;;
69714;SDS011;56981;53.532;49.398;2022-09-30T16:03:38;61.65;;;32.80;;
69714;SDS011;56981;53.532;49.398;2022-09-30T16:06:11;67.10;;;35.95;;
69714;SDS011;56981;53.532;49.398;2022-09-30T16:08:47;64.00;;;32.83;;
69714;SDS011;56981;53.532;49.398;2022-09-30T16:11:25;64.10;;;34.83;;
69714;SDS011;56981;53.532;49.398;2022-09-30T16:13:54;63.38;;;33.08;;
69714;SDS011;56981;53.532;49.398;2022-09-30T16:16:23;59.15;;;29.20;;
69714;SDS011;56981;53.532;49.398;2022-09-30T16:18:51;58.42;;;29.77;;
69714;SDS011;56981;53.532;49.398;2022-09-30T16:27:00;58.55;;;31.73;;
69714;SDS011;56981;53.532;49.398;2022-09-30T16:29:45;60.75;;;32.63;;
69714;SDS011;56981;53.532;49.398;2022-09-30T16:32:11;57.60;;;31.30;;
69714;SDS011;56981;53.532;49.398;2022-09-30T16:34:38;49.42;;;25.85;;
69714;SDS011;56981;53.532;49.398;2022-09-30T16:37:16;48.97;;;26.25;;
69714;SDS011;56981;53.532;49.398;2022-09-30T16:39:44;19.08;;;11.52;;
69714;SDS011;56981;53.532;49.398;2022-09-30T16:42:12;21.50;;;11.43;;
69714;SDS011;56981;53.532;49.398;2022-09-30T16:44:39;18.80;;;10.63;;
69714;SDS011;56981;53.532;49.398;2022-09-30T16:47:12;19.85;;;11.82;;
69714;SDS011;56981;53.532;49.398;2022-09-30T16:49:40;16.55;;;10.25;;
69714;SDS011;56981;53.532;49.398;2022-09-30T16:52:09;14.85;;;8.48;;
69714;SDS011;56981;53.532;49.398;2022-09-30T16:54:36;13.02;;;7.80;;
69714;SDS011;56981;53.532;49.398;2022-09-30T16:57:02;14.13;;;8.48;;
69714;SDS011;56981;53.532;49.398;2022-09-30T16:59:28;12.43;;;7.55;;
69714;SDS011;56981;53.532;49.398;2022-09-30T17:01:57;12.77;;;7.90;;
69714;SDS011;56981;53.532;49.398;2022-09-30T17:04:25;12.10;;;8.13;;
69714;SDS011;56981;53.532;49.398;2022-09-30T17:06:51;13.63;;;8.45;;
69714;SDS011;56981;53.532;49.398;2022-09-30T17:09:21;12.65;;;7.93;;
69714;SDS011;56981;53.532;49.398;2022-09-30T17:11:47;11.95;;;8.23;;
69714;SDS011;56981;53.532;49.398;2022-09-30T17:14:15;13.73;;;8.30;;
69714;SDS011;56981;53.532;49.398;2022-09-30T17:16:42;13.52;;;8.85;;
69714;SDS011;56981;53.532;49.398;2022-09-30T17:19:07;12.60;;;8.00;;
69714;SDS011;56981;53.532;49.398;2022-09-30T17:21:34;12.00;;;8.23;;
69714;SDS011;56981;53.532;49.398;2022-09-30T17:24:00;11.77;;;8.55;;
69714;SDS011;56981;53.532;49.398;2022-09-30T17:26:26;14.93;;;8.55;;
69714;SDS011;56981;53.532;49.398;2022-09-30T17:28:52;13.55;;;8.07;;
69714;SDS011;56981;53.532;49.398;2022-09-30T17:31:18;14.00;;;8.73;;
69714;SDS011;56981;53.532;49.398;2022-09-30T17:33:44;13.93;;;8.40;;
69714;SDS011;56981;53.532;49.398;2022-09-30T17:36:11;16.90;;;8.60;;
69714;SDS011;56981;53.532;49.398;2022-09-30T17:38:38;14.90;;;8.35;;
69714;SDS011;56981;53.532;49.398;2022-09-30T17:41:04;16.50;;;8.95;;
69714;SDS011;56981;53.532;49.398;2022-09-30T17:43:49;14.88;;;8.05;;
69714;SDS011;56981;53.532;49.398;2022-09-30T17:46:16;12.52;;;8.15;;
69714;SDS011;56981;53.532;49.398;2022-09-30T17:48:45;13.32;;;8.68;;
69714;SDS011;56981;53.532;49.398;2022-09-30T17:51:12;14.15;;;8.77;;
69714;SDS011;56981;53.532;49.398;2022-09-30T17:53:40;15.15;;;8.35;;
69714;SDS011;56981;53.532;49.398;2022-09-30T17:56:13;14.52;;;8.73;;
69714;SDS011;56981;53.532;49.398;2022-09-30T17:58:43;14.48;;;8.80;;
69714;SDS011;56981;53.532;49.398;2022-09-30T18:01:12;13.52;;;8.27;;
69714;SDS011;56981;53.532;49.398;2022-09-30T18:03:44;14.73;;;8.80;;
69714;SDS011;56981;53.532;49.398;2022-09-30T18:06:10;14.40;;;8.63;;
69714;SDS011;56981;53.532;49.398;2022-09-30T18:08:38;15.98;;;9.27;;
69714;SDS011;56981;53.532;49.398;2022-09-30T18:11:05;15.73;;;8.77;;
69714;SDS011;56981;53.532;49.398;2022-09-30T18:13:31;13.57;;;8.27;;
69714;SDS011;56981;53.532;49.398;2022-09-30T18:15:57;14.00;;;7.88;;
69714;SDS011;56981;53.532;49.398;2022-09-30T18:18:29;16.70;;;8.73;;
69714;SDS011;56981;53.532;49.398;2022-09-30T18:20:55;11.40;;;7.88;;
69714;SDS011;56981;53.532;49.398;2022-09-30T18:23:21;13.88;;;7.47;;
69714;SDS011;56981;53.532;49.398;2022-09-30T18:25:47;12.90;;;8.10;;
69714;SDS011;56981;53.532;49.398;2022-09-30T18:28:14;14.95;;;8.05;;
69714;SDS011;56981;53.532;49.398;2022-09-30T18:30:41;14.32;;;9.07;;
69714;SDS011;56981;53.532;49.398;2022-09-30T18:33:08;17.23;;;8.70;;
69714;SDS011;56981;53.532;49.398;2022-09-30T18:35:35;15.02;;;8.52;;
69714;SDS011;56981;53.532;49.398;2022-09-30T18:38:04;13.82;;;8.75;;
69714;SDS011;56981;53.532;49.398;2022-09-30T18:40:31;14.35;;;8.60;;
69714;SDS011;56981;53.532;49.398;2022-09-30T18:42:58;13.23;;;8.38;;